Time;durP1;ratioP1;P1;durP2;ratioP2;P2;SDS_P1;SDS_P2;PMS_P1;PMS_P2;Temp;Humidity;BMP_temperature;BMP_pressure;BME280_temperature;BME280_humidity;BME280_pressure;Samples;Min_cycle;Max_cycle;Signal;HPM_P1;HPM_P2
2022/06/08 00:01:00;;;;;;;12.38;5.75;;;538.40;2406.40;;;;;;5096726;28;20435;-78
2022/06/08 00:03:32;;;;;;;7.68;4.82;;;538.40;2406.40;;;;;;5096656;28;20024;-80
2022/06/08 00:05:58;;;;;;;8.30;4.85;;;538.40;2406.40;;;;;;5115000;28;20034;-78
2022/06/08 00:08:23;;;;;;;13.68;5.20;;;563.20;2432.00;;;;;;5115078;28;20380;-80
2022/06/08 00:10:49;;;;;;;11.18;5.28;;;563.20;2432.00;;;;;;5096820;28;20027;-80
2022/06/08 00:13:16;;;;;;;12.07;5.30;;;538.50;2406.40;;;;;;5115335;28;20023;-81
2022/06/08 00:15:42;;;;;;;14.43;5.03;;;538.50;2406.40;;;;;;5096712;28;20066;-81
2022/06/08 00:18:09;;;;;;;10.00;4.57;;;563.20;2432.00;;;;;;5096170;28;20051;-79
2022/06/08 00:20:36;;;;;;;8.80;5.93;;;563.20;2432.00;;;;;;5114604;28;20026;-78
2022/06/08 00:23:02;;;;;;;18.90;6.38;;;563.30;2432.00;;;;;;5096308;28;20076;-79
2022/06/08 00:25:28;;;;;;;8.85;5.97;;;538.50;2406.40;;;;;;5096060;28;20031;-81
2022/06/08 00:27:54;;;;;;;12.98;5.95;;;538.30;2406.40;;;;;;5114242;28;20020;-78
2022/06/08 00:30:19;;;;;;;9.45;6.53;;;538.00;2406.40;;;;;;5096453;28;20023;-81
2022/06/08 00:32:45;;;;;;;9.68;6.10;;;537.90;2406.40;;;;;;5096198;28;20053;-78
2022/06/08 00:35:11;;;;;;;13.88;6.50;;;538.00;2406.40;;;;;;5114506;28;20097;-80
2022/06/08 00:37:37;;;;;;;10.48;6.68;;;538.00;2406.40;;;;;;5114574;28;20386;-80
2022/06/08 00:40:04;;;;;;;8.32;5.40;;;538.00;2406.40;;;;;;5096197;28;20034;-80
2022/06/08 00:42:30;;;;;;;10.80;5.85;;;537.90;2406.40;;;;;;5096022;28;20024;-77
2022/06/08 00:45:00;;;;;;;7.95;5.85;;;538.00;2406.40;;;;;;5096401;28;20038;-78
2022/06/08 00:47:32;;;;;;;14.98;9.43;;;537.90;2406.40;;;;;;5096261;28;20115;-83
2022/06/08 00:50:12;;;;;;;14.63;7.47;;;537.80;2406.40;;;;;;5096111;28;20499;-80
2022/06/08 00:52:38;;;;;;;10.32;6.70;;;538.00;2406.40;;;;;;5114097;28;20027;-82
2022/06/08 00:55:12;;;;;;;21.02;17.80;;;538.10;2406.40;;;;;;5095718;28;20090;-78
2022/06/08 00:57:39;;;;;;;11.40;8.13;;;538.00;2406.40;;;;;;5096311;28;20073;-78
2022/06/08 01:00:15;;;;;;;10.55;6.55;;;538.00;2406.40;;;;;;5095946;28;20024;-77
2022/06/08 01:02:41;;;;;;;10.27;5.80;;;538.00;2406.40;;;;;;5114019;28;20030;-76
2022/06/08 01:05:28;;;;;;;9.40;5.85;;;537.80;2406.40;;;;;;5095762;28;20024;-77
2022/06/08 01:07:58;;;;;;;9.75;4.78;;;537.70;2406.40;;;;;;5096095;28;20122;-77
2022/06/08 01:10:35;;;;;;;9.73;5.03;;;537.70;2406.40;;;;;;5095393;28;20027;-77
2022/06/08 01:13:04;;;;;;;7.93;4.45;;;537.60;2406.40;;;;;;5113838;28;20027;-76
2022/06/08 01:15:32;;;;;;;7.57;3.63;;;537.60;2406.40;;;;;;5114017;28;20111;-77
2022/06/08 01:17:58;;;;;;;13.48;4.50;;;537.70;2406.40;;;;;;5095409;28;20468;-77
2022/06/08 01:20:25;;;;;;;5.68;4.32;;;537.90;2406.40;;;;;;5095665;28;20024;-77
2022/06/08 01:22:51;;;;;;;7.63;4.13;;;537.90;2406.40;;;;;;5113868;28;20023;-77
2022/06/08 01:25:18;;;;;;;8.13;5.20;;;537.70;2406.40;;;;;;5113403;28;20080;-77
2022/06/08 01:27:55;;;;;;;5.75;4.38;;;512.20;2380.80;;;;;;5095436;28;20084;-78
2022/06/08 01:30:23;;;;;;;5.30;3.92;;;537.60;2406.40;;;;;;5095269;28;20034;-76
2022/06/08 01:33:05;;;;;;;7.90;4.15;;;537.60;2406.40;;;;;;5113460;28;20046;-77
2022/06/08 01:35:52;;;;;;;10.23;6.68;;;537.60;2406.40;;;;;;5095522;28;20099;-76
2022/06/08 01:38:20;;;;;;;13.07;7.70;;;537.60;2406.40;;;;;;5096524;28;20464;-78
2022/06/08 01:41:34;;;;;;;12.73;7.60;;;512.90;2380.80;;;;;;5118041;28;20476;-76
2022/06/08 01:44:22;;;;;;;12.68;7.22;;;512.60;2380.80;;;;;;5080248;28;20122;-78
2022/06/08 01:46:54;;;;;;;14.15;8.10;;;512.50;2380.80;;;;;;5117256;28;20039;-77
2022/06/08 01:49:53;;;;;;;13.18;7.00;;;512.40;2380.80;;;;;;5099205;28;20047;-77
2022/06/08 01:52:25;;;;;;;13.00;6.57;;;512.60;2380.80;;;;;;5065342;28;20062;-77
2022/06/08 01:55:15;;;;;;;9.80;5.43;;;512.50;2380.80;;;;;;5117443;28;20051;-78
2022/06/08 01:58:00;;;;;;;6.47;4.93;;;512.60;2380.80;;;;;;5099173;28;20036;-77
2022/06/08 02:00:38;;;;;;;10.52;4.80;;;512.70;2380.80;;;;;;5099179;28;20019;-77
2022/06/08 02:03:24;;;;;;;10.23;4.90;;;512.70;2380.80;;;;;;5099021;28;20028;-77
2022/06/08 02:06:18;;;;;;;11.43;6.35;;;512.60;2380.80;;;;;;5098701;28;20032;-77
2022/06/08 02:09:41;;;;;;;10.18;6.30;;;512.50;2380.80;;;;;;5098922;28;20056;-78
2022/06/08 02:12:11;;;;;;;17.55;5.93;;;512.50;2380.80;;;;;;5014507;28;20037;-78
2022/06/08 02:15:06;;;;;;;7.05;5.20;;;512.40;2380.80;;;;;;5097738;28;20037;-78
2022/06/08 02:17:42;;;;;;;8.18;5.63;;;512.50;2380.80;;;;;;5010117;28;20097;-77
2022/06/08 02:20:11;;;;;;;9.65;5.13;;;512.70;2380.80;;;;;;5098501;28;20059;-77
2022/06/08 02:22:47;;;;;;;10.75;5.18;;;512.60;2380.80;;;;;;5098656;28;20016;-76
2022/06/08 02:25:22;;;;;;;11.23;5.10;;;512.70;2380.80;;;;;;5098584;28;20024;-76
2022/06/08 02:28:15;;;;;;;7.40;5.03;;;512.80;2380.80;;;;;;5098400;28;20023;-77
2022/06/08 02:31:15;;;;;;;14.35;8.27;;;512.80;2380.80;;;;;;5098521;28;20038;-77
2022/06/08 02:36:35;;;;;;;15.93;7.13;;;512.10;2380.80;;;;;;5116794;28;20034;-77
2022/06/08 02:39:13;;;;;;;12.55;6.80;;;512.30;2380.80;;;;;;5116407;28;20471;-78
2022/06/08 02:41:42;;;;;;;12.88;6.43;;;512.30;2380.80;;;;;;5098103;28;20019;-78
2022/06/08 02:44:12;;;;;;;12.02;6.05;;;512.40;2380.80;;;;;;5098156;28;20065;-78
2022/06/08 02:47:12;;;;;;;13.73;7.43;;;512.40;2380.80;;;;;;5098010;28;20472;-80
2022/06/08 02:49:38;;;;;;;8.82;5.88;;;512.40;2380.80;;;;;;5135723;27;20377;-79
2022/06/08 02:52:10;;;;;;;10.93;5.82;;;512.30;2380.80;;;;;;5117266;27;20464;-76
2022/06/08 02:54:36;;;;;;;11.30;6.00;;;512.30;2380.80;;;;;;5118091;27;20047;-77
2022/06/08 02:57:07;;;;;;;10.55;6.07;;;512.40;2380.80;;;;;;5118340;27;20030;-77
2022/06/08 02:59:40;;;;;;;13.02;5.72;;;512.50;2380.80;;;;;;5118328;27;20468;-78
2022/06/08 03:02:25;;;;;;;10.52;4.82;;;512.50;2380.80;;;;;;5118020;27;20425;-77
2022/06/08 03:04:54;;;;;;;9.02;5.00;;;512.70;2380.80;;;;;;5118267;27;20043;-77
2022/06/08 03:07:50;;;;;;;12.20;5.18;;;512.70;2380.80;;;;;;5118159;27;20031;-78
2022/06/08 03:10:18;;;;;;;8.18;4.80;;;512.60;2380.80;;;;;;5136040;27;20019;-78
2022/06/08 03:13:16;;;;;;;9.88;5.82;;;512.70;2380.80;;;;;;5118251;27;20471;-78
2022/06/08 03:15:54;;;;;;;13.95;6.50;;;512.50;2380.80;;;;;;5114771;27;20061;-79
2022/06/08 03:18:23;;;;;;;16.27;6.40;;;512.60;2380.80;;;;;;5118201;27;20019;-77
2022/06/08 03:20:55;;;;;;;14.15;6.70;;;512.50;2380.80;;;;;;5118063;27;20042;-77
2022/06/08 03:23:22;;;;;;;10.80;6.03;;;512.80;2380.80;;;;;;5117963;27;20023;-77
2022/06/08 03:25:49;;;;;;;12.23;7.10;;;512.60;2380.80;;;;;;5117742;27;20483;-77
2022/06/08 03:28:15;;;;;;;13.60;7.90;;;512.40;2380.80;;;;;;5117791;27;20023;-78
2022/06/08 03:30:43;;;;;;;13.02;7.18;;;512.40;2380.80;;;;;;5117349;27;20023;-78
2022/06/08 03:33:09;;;;;;;13.10;6.93;;;512.30;2380.80;;;;;;5135819;27;20023;-78
2022/06/08 03:35:36;;;;;;;11.05;6.90;;;512.40;2380.80;;;;;;5136008;27;20095;-76
2022/06/08 03:38:03;;;;;;;12.38;5.80;;;512.50;2380.80;;;;;;5117305;27;20055;-78
2022/06/08 03:40:30;;;;;;;8.68;5.50;;;512.50;2380.80;;;;;;5117556;27;20054;-79
2022/06/08 03:42:56;;;;;;;16.58;5.53;;;512.50;2380.80;;;;;;5135967;27;20041;-76
2022/06/08 03:45:23;;;;;;;10.95;5.82;;;512.60;2380.80;;;;;;5136115;27;20072;-77
2022/06/08 03:47:51;;;;;;;9.82;5.47;;;512.70;2380.80;;;;;;5117394;27;20376;-78
2022/06/08 03:50:29;;;;;;;8.75;5.85;;;512.70;2380.80;;;;;;5117139;27;20047;-78
2022/06/08 03:53:06;;;;;;;11.20;5.28;;;512.80;2380.80;;;;;;5117269;27;20106;-77
2022/06/08 03:55:34;;;;;;;15.27;6.25;;;512.60;2380.80;;;;;;5117264;27;20481;-77
2022/06/08 03:58:01;;;;;;;8.35;5.93;;;512.50;2380.80;;;;;;5116921;27;20023;-77
2022/06/08 04:00:28;;;;;;;8.52;5.43;;;512.50;2380.80;;;;;;5117115;27;20030;-78
2022/06/08 04:02:54;;;;;;;11.60;5.93;;;512.50;2380.80;;;;;;5116134;27;20030;-78
2022/06/08 04:05:20;;;;;;;11.95;5.18;;;512.70;2380.80;;;;;;5135356;27;20035;-77
2022/06/08 04:07:46;;;;;;;13.23;5.70;;;512.70;2380.80;;;;;;5116973;27;20353;-77
2022/06/08 04:10:12;;;;;;;7.63;5.82;;;512.70;2380.80;;;;;;5116969;27;20030;-76
2022/06/08 04:12:39;;;;;;;9.88;4.93;;;512.70;2380.80;;;;;;5116677;27;20027;-77
2022/06/08 04:15:06;;;;;;;7.25;5.15;;;512.70;2380.80;;;;;;5116779;27;20088;-78
2022/06/08 04:17:32;;;;;;;10.20;5.03;;;512.60;2380.80;;;;;;5115812;27;20035;-77
2022/06/08 04:19:58;;;;;;;13.38;5.35;;;512.90;2380.80;;;;;;5116569;27;20029;-78
2022/06/08 04:22:31;;;;;;;9.43;5.65;;;512.80;2380.80;;;;;;5116706;27;20383;-77
2022/06/08 04:24:58;;;;;;;10.82;6.03;;;512.80;2380.80;;;;;;5116448;27;20030;-76
2022/06/08 04:27:26;;;;;;;14.60;6.20;;;512.90;2380.80;;;;;;5135381;27;20110;-77
2022/06/08 04:29:53;;;;;;;18.88;7.65;;;512.80;2380.80;;;;;;5116533;27;20027;-78
2022/06/08 04:32:19;;;;;;;13.57;6.55;;;512.70;2380.80;;;;;;5116295;27;20024;-76
2022/06/08 04:34:45;;;;;;;11.35;5.60;;;512.80;2380.80;;;;;;5116463;27;20119;-77
2022/06/08 04:37:12;;;;;;;15.38;5.82;;;512.80;2380.80;;;;;;5116548;27;20059;-79
2022/06/08 04:39:38;;;;;;;14.27;5.93;;;512.70;2380.80;;;;;;5134248;27;20019;-77
2022/06/08 04:42:05;;;;;;;8.50;5.68;;;512.50;2380.80;;;;;;5116403;27;20387;-79
2022/06/08 04:44:32;;;;;;;14.80;6.45;;;512.60;2380.80;;;;;;5134930;27;20540;-78
2022/06/08 04:46:59;;;;;;;15.68;6.47;;;512.70;2380.80;;;;;;5134548;27;20038;-78
2022/06/08 04:49:25;;;;;;;13.43;6.28;;;512.50;2380.80;;;;;;5116282;27;20169;-77
2022/06/08 04:51:51;;;;;;;12.65;5.55;;;512.30;2380.80;;;;;;5116225;28;20114;-77
2022/06/08 04:54:16;;;;;;;11.85;5.90;;;512.40;2380.80;;;;;;5115745;27;20043;-78
2022/06/08 04:56:42;;;;;;;17.40;5.95;;;512.40;2380.80;;;;;;5134684;27;20102;-79
2022/06/08 04:59:09;;;;;;;13.10;5.50;;;512.50;2380.80;;;;;;5134519;27;20030;-78
2022/06/08 05:01:35;;;;;;;10.13;5.03;;;512.80;2380.80;;;;;;5115926;28;20023;-78
2022/06/08 05:04:01;;;;;;;11.85;5.88;;;512.90;2380.80;;;;;;5116209;28;20027;-79
2022/06/08 05:06:27;;;;;;;10.25;5.15;;;512.90;2380.80;;;;;;5116079;28;20027;-78
2022/06/08 05:08:53;;;;;;;11.73;5.60;;;512.90;2380.80;;;;;;5115856;28;20034;-78
2022/06/08 05:11:19;;;;;;;10.15;5.57;;;512.90;2380.80;;;;;;5116371;28;20023;-78
2022/06/08 05:13:46;;;;;;;9.90;5.30;;;512.90;2380.80;;;;;;5118324;27;20027;-78
2022/06/08 05:16:12;;;;;;;8.90;5.25;;;537.70;2406.40;;;;;;5138350;27;20102;-78
2022/06/08 05:18:38;;;;;;;7.80;5.28;;;537.60;2406.40;;;;;;5138707;27;20024;-78
2022/06/08 05:21:04;;;;;;;10.25;5.15;;;537.60;2406.40;;;;;;5138460;27;20024;-78
2022/06/08 05:23:33;;;;;;;11.27;6.65;;;537.60;2406.40;;;;;;5138730;27;20047;-78
2022/06/08 05:26:00;;;;;;;8.95;5.22;;;537.60;2406.40;;;;;;5138598;27;20075;-78
2022/06/08 05:28:26;;;;;;;7.63;4.32;;;537.60;2406.40;;;;;;5119744;27;20368;-77
2022/06/08 05:30:53;;;;;;;18.30;7.93;;;512.90;2380.80;;;;;;5120098;27;20035;-78
2022/06/08 05:33:19;;;;;;;15.18;7.88;;;512.90;2380.80;;;;;;5120087;27;20395;-78
2022/06/08 05:35:45;;;;;;;17.88;6.50;;;512.90;2380.80;;;;;;5119724;27;20027;-79
2022/06/08 05:38:11;;;;;;;13.95;6.85;;;512.80;2380.80;;;;;;5119979;27;20027;-78
2022/06/08 05:40:38;;;;;;;14.60;7.07;;;512.90;2380.80;;;;;;5120068;27;20365;-78
2022/06/08 05:43:06;;;;;;;12.57;7.30;;;512.80;2380.80;;;;;;5138001;27;20023;-79
2022/06/08 05:45:33;;;;;;;19.38;8.02;;;512.80;2380.80;;;;;;5138539;27;20033;-78
2022/06/08 05:47:59;;;;;;;13.13;6.72;;;537.70;2406.40;;;;;;5119986;27;20027;-78
2022/06/08 05:50:26;;;;;;;14.00;7.93;;;538.00;2406.40;;;;;;5119641;27;20076;-78
2022/06/08 05:52:52;;;;;;;19.10;9.00;;;538.10;2406.40;;;;;;5119824;27;20232;-78
2022/06/08 05:55:21;;;;;;;13.80;6.65;;;538.30;2406.40;;;;;;5114267;28;20058;-78
2022/06/08 05:57:47;;;;;;;18.25;7.22;;;538.50;2406.40;;;;;;5098867;28;20023;-78
2022/06/08 06:00:17;;;;;;;15.63;7.80;;;563.20;2432.00;;;;;;5098867;28;20034;-78
2022/06/08 06:02:43;;;;;;;10.25;5.32;;;563.40;2432.00;;;;;;5117556;28;20032;-78
2022/06/08 06:05:11;;;;;;;12.70;5.28;;;563.60;2432.00;;;;;;5098714;28;20032;-78
2022/06/08 06:07:37;;;;;;;8.75;4.88;;;563.80;2432.00;;;;;;5098831;28;20051;-77
2022/06/08 06:10:03;;;;;;;10.10;5.10;;;564.00;2432.00;;;;;;5098674;28;20031;-77
2022/06/08 06:12:30;;;;;;;7.40;4.70;;;564.10;2432.00;;;;;;5098835;28;20357;-77
2022/06/08 06:14:57;;;;;;;13.15;4.25;;;588.80;2432.00;;;;;;5098904;28;20110;-78
2022/06/08 06:17:24;;;;;;;7.97;4.95;;;589.00;2432.00;;;;;;5098578;28;20023;-78
2022/06/08 06:19:49;;;;;;;7.15;4.35;;;564.00;2432.00;;;;;;5098678;28;20358;-77
2022/06/08 06:22:15;;;;;;;7.18;4.85;;;563.90;2432.00;;;;;;5098356;28;20030;-77
2022/06/08 06:24:41;;;;;;;9.27;4.43;;;564.00;2432.00;;;;;;5097462;28;20023;-77
2022/06/08 06:27:07;;;;;;;7.90;4.43;;;588.80;2432.00;;;;;;5099268;28;20028;-77
2022/06/08 06:29:33;;;;;;;8.80;4.85;;;589.00;2432.00;;;;;;5107726;28;20015;-78
2022/06/08 06:32:03;;;;;;;9.90;4.50;;;589.20;2432.00;;;;;;5123984;28;20008;-77
2022/06/08 06:34:29;;;;;;;5.90;3.95;;;589.40;2432.00;;;;;;5124400;28;20008;-77
2022/06/08 06:36:58;;;;;;;6.97;4.50;;;589.50;2432.00;;;;;;5124129;28;20011;-77
2022/06/08 06:39:26;;;;;;;5.15;3.80;;;589.70;2432.00;;;;;;5122778;28;20003;-78
2022/06/08 06:41:53;;;;;;;8.23;4.38;;;589.70;2432.00;;;;;;5117109;28;20024;-77
2022/06/08 06:44:19;;;;;;;5.60;3.63;;;614.50;2432.00;;;;;;5098656;28;20076;-77
2022/06/08 06:46:46;;;;;;;9.90;4.68;;;614.50;2432.00;;;;;;5098160;28;20501;-78
2022/06/08 06:49:12;;;;;;;7.88;4.25;;;614.70;2432.00;;;;;;5098298;28;20028;-76
2022/06/08 06:51:39;;;;;;;6.20;3.50;;;615.00;2432.00;;;;;;5116810;28;20020;-77
2022/06/08 06:54:07;;;;;;;7.95;3.63;;;615.20;2432.00;;;;;;5097652;28;20050;-77
2022/06/08 06:56:34;;;;;;;6.15;3.50;;;615.20;2432.00;;;;;;5098109;28;20027;-77
2022/06/08 06:59:01;;;;;;;6.88;3.65;;;640.00;2432.00;;;;;;5097635;28;20073;-77
2022/06/08 07:01:27;;;;;;;8.05;4.00;;;640.00;2432.00;;;;;;5098056;28;20403;-77
2022/06/08 07:03:52;;;;;;;7.75;3.80;;;640.20;2432.00;;;;;;5097949;28;20034;-77
2022/06/08 07:06:18;;;;;;;6.95;3.60;;;640.40;2432.00;;;;;;5097392;28;20032;-77
2022/06/08 07:08:44;;;;;;;8.05;3.75;;;640.50;2432.00;;;;;;5116269;28;20027;-77
2022/06/08 07:13:56;;;;;;;6.07;3.63;;;640.80;2380.80;;;;;;5115793;28;20035;-77
2022/06/08 07:16:22;;;;;;;6.18;3.78;;;640.80;2406.40;;;;;;5115857;28;20035;-76
2022/06/08 07:18:48;;;;;;;7.72;3.58;;;640.80;2406.40;;;;;;5097777;28;20032;-77
2022/06/08 07:21:14;;;;;;;7.82;3.80;;;640.70;2406.40;;;;;;5097111;28;20020;-76
2022/06/08 07:23:41;;;;;;;10.82;3.95;;;640.60;2380.80;;;;;;5097413;28;20023;-77
2022/06/08 07:26:07;;;;;;;6.45;3.63;;;640.80;2406.40;;;;;;5097338;28;20092;-76
2022/06/08 07:28:32;;;;;;;6.07;3.78;;;640.40;2406.40;;;;;;5115651;28;20027;-77
2022/06/08 07:31:00;;;;;;;7.82;4.00;;;640.20;2432.00;;;;;;5097242;28;20020;-77
2022/06/08 07:33:26;;;;;;;5.95;4.30;;;640.20;2432.00;;;;;;5115760;28;20015;-76
2022/06/08 07:35:52;;;;;;;8.77;4.25;;;640.20;2432.00;;;;;;5096646;28;20084;-77
2022/06/08 07:38:18;;;;;;;8.13;4.80;;;640.20;2432.00;;;;;;5097042;28;20436;-77
2022/06/08 07:40:44;;;;;;;8.48;5.43;;;640.20;2432.00;;;;;;5097131;28;20161;-77
2022/06/08 07:43:10;;;;;;;10.77;4.65;;;640.20;2432.00;;;;;;5096840;28;20164;-77
2022/06/08 07:45:36;;;;;;;6.78;4.70;;;640.20;2432.00;;;;;;5115167;28;20024;-76
2022/06/08 07:50:47;;;;;;;11.25;4.82;;;640.30;2432.00;;;;;;5115161;28;20500;-77
2022/06/08 07:53:13;;;;;;;10.02;5.07;;;640.30;2432.00;;;;;;5096590;28;20023;-77
2022/06/08 07:55:38;;;;;;;9.15;4.68;;;640.40;2432.00;;;;;;5097200;28;20035;-77
2022/06/08 07:58:04;;;;;;;9.20;5.20;;;640.50;2432.00;;;;;;5096900;28;20031;-77
2022/06/08 08:00:30;;;;;;;9.20;5.32;;;640.50;2432.00;;;;;;5115174;28;20024;-77
2022/06/08 08:02:56;;;;;;;7.45;4.55;;;640.80;2432.00;;;;;;5096631;28;20393;-77
2022/06/08 08:05:22;;;;;;;9.88;5.00;;;665.80;2432.00;;;;;;5096847;28;20031;-77
2022/06/08 08:07:50;;;;;;;12.20;5.00;;;666.00;2432.00;;;;;;5096675;28;20032;-76
2022/06/08 08:10:20;;;;;;;8.02;5.43;;;666.10;2432.00;;;;;;5099275;27;20031;-74
2022/06/08 08:12:47;;;;;;;6.32;4.70;;;666.00;2432.00;;;;;;5097992;28;20030;-76
2022/06/08 08:15:13;;;;;;;10.90;5.90;;;666.00;2432.00;;;;;;5096506;28;20457;-76
2022/06/08 08:17:40;;;;;;;8.48;5.47;;;666.10;2432.00;;;;;;5096051;28;20024;-76
2022/06/08 08:20:07;;;;;;;8.68;5.30;;;666.20;2432.00;;;;;;5096415;28;20020;-80
2022/06/08 08:22:33;;;;;;;11.82;5.97;;;666.40;2432.00;;;;;;5098912;28;20031;-78
2022/06/08 08:24:59;;;;;;;10.32;4.60;;;691.30;2406.40;;;;;;5113981;28;20392;-78
2022/06/08 08:27:24;;;;;;;6.40;5.00;;;691.40;2329.60;;;;;;5096401;28;20028;-79
2022/06/08 08:29:51;;;;;;;8.80;4.85;;;691.60;2304.00;;;;;;5096058;28;20024;-78
2022/06/08 08:32:17;;;;;;;10.93;6.35;;;691.70;2355.20;;;;;;5095851;28;20020;-77
2022/06/08 08:34:43;;;;;;;9.75;5.47;;;691.80;2329.60;;;;;;5096125;28;20062;-79
2022/06/08 08:37:09;;;;;;;9.57;5.43;;;691.70;2304.00;;;;;;5095716;28;20059;-76
2022/06/08 08:39:35;;;;;;;9.55;6.55;;;691.60;2329.60;;;;;;5095745;28;20051;-75
2022/06/08 08:44:50;;;;;;;10.50;5.30;;;691.60;2380.80;;;;;;5113956;28;20154;-75
2022/06/08 08:47:34;;;;;;;10.05;5.78;;;691.90;2355.20;;;;;;5095661;28;20485;-74
2022/06/08 08:50:08;;;;;;;11.95;6.35;;;692.10;2329.60;;;;;;5095911;28;20027;-76
2022/06/08 08:53:05;;;;;;;8.40;4.93;;;716.90;2304.00;;;;;;5095599;28;20030;-76
2022/06/08 08:55:49;;;;;;;11.75;5.15;;;692.10;2304.00;;;;;;5095953;28;20044;-77
2022/06/08 08:58:28;;;;;;;9.00;5.18;;;691.80;2329.60;;;;;;5113459;28;20047;-76
2022/06/08 09:01:00;;;;;;;12.40;5.70;;;691.20;2355.20;;;;;;5095793;28;20027;-76
2022/06/08 09:03:33;;;;;;;7.90;5.88;;;691.20;2380.80;;;;;;5113974;28;20035;-77
2022/06/08 09:06:18;;;;;;;10.00;6.05;;;666.40;2406.40;;;;;;5095429;28;20472;-76
2022/06/08 09:08:46;;;;;;;9.82;5.57;;;666.50;2406.40;;;;;;5095798;28;20059;-75
2022/06/08 09:11:16;;;;;;;10.55;5.75;;;666.40;2406.40;;;;;;5095495;28;20055;-75
2022/06/08 09:14:17;;;;;;;9.18;5.65;;;666.40;2406.40;;;;;;5095244;28;20027;-75
2022/06/08 09:16:46;;;;;;;7.70;5.95;;;666.10;2432.00;;;;;;5094680;28;20039;-76
2022/06/08 09:19:21;;;;;;;9.57;5.82;;;666.10;2432.00;;;;;;5113685;28;20041;-76
2022/06/08 09:21:53;;;;;;;13.13;6.50;;;666.00;2432.00;;;;;;5113807;28;20475;-75
2022/06/08 09:24:41;;;;;;;10.95;5.82;;;666.10;2432.00;;;;;;5113715;28;20065;-74
2022/06/08 09:27:31;;;;;;;7.70;6.05;;;666.20;2432.00;;;;;;5088181;28;20066;-76
2022/06/08 09:30:45;;;;;;;8.82;5.70;;;665.80;2432.00;;;;;;5095499;28;20077;-75
2022/06/08 09:33:27;;;;;;;9.95;7.43;;;666.10;2432.00;;;;;;4994168;28;20042;-75
2022/06/08 09:36:01;;;;;;;12.63;7.95;;;665.90;2432.00;;;;;;5094357;28;20168;-76
2022/06/08 09:38:32;;;;;;;8.70;6.65;;;665.90;2432.00;;;;;;5095391;28;20415;-76
2022/06/08 09:41:13;;;;;;;12.30;6.05;;;666.00;2432.00;;;;;;5095093;28;20031;-75
2022/06/08 09:43:57;;;;;;;7.80;5.68;;;666.10;2432.00;;;;;;5113595;28;20024;-76
2022/06/08 09:52:20;;;;;;;12.40;7.70;;;665.80;2432.00;;;;;;5113559;28;20119;-78
2022/06/08 09:54:56;;;;;;;11.50;7.30;;;665.90;2432.00;;;;;;5095037;28;20485;-75
2022/06/08 09:58:03;;;;;;;8.30;6.75;;;665.90;2432.00;;;;;;5113493;28;20024;-76
2022/06/08 10:00:50;;;;;;;7.63;6.35;;;666.00;2432.00;;;;;;5068862;28;20062;-76
2022/06/08 10:03:21;;;;;;;11.40;6.68;;;666.00;2432.00;;;;;;5098660;28;20020;-76
2022/06/08 10:06:10;;;;;;;12.10;7.28;;;666.20;2432.00;;;;;;5117474;28;20028;-76
2022/06/08 10:08:49;;;;;;;8.77;6.10;;;666.20;2432.00;;;;;;5106733;27;20095;-76
2022/06/08 10:11:42;;;;;;;9.38;6.95;;;666.30;2432.00;;;;;;5103315;28;20024;-77
2022/06/08 10:14:39;;;;;;;11.05;7.93;;;666.30;2432.00;;;;;;5098659;28;20106;-76
2022/06/08 10:17:17;;;;;;;10.40;7.30;;;666.30;2432.00;;;;;;5098255;28;20027;-75
2022/06/08 10:19:46;;;;;;;10.70;7.20;;;666.40;2432.00;;;;;;5098476;28;20031;-76
2022/06/08 10:22:13;;;;;;;8.52;6.72;;;666.50;2432.00;;;;;;5118012;27;20189;-76
2022/06/08 10:25:17;;;;;;;9.88;6.68;;;691.20;2432.00;;;;;;5118878;27;20027;-77
2022/06/08 10:27:55;;;;;;;8.98;6.90;;;691.20;2432.00;;;;;;5067646;27;20070;-76
2022/06/08 10:30:23;;;;;;;8.70;6.60;;;666.30;2432.00;;;;;;5118391;27;20030;-76
2022/06/08 10:33:17;;;;;;;9.10;6.30;;;666.30;2432.00;;;;;;5117859;27;20067;-75
2022/06/08 10:35:47;;;;;;;9.43;7.35;;;666.20;2432.00;;;;;;5103452;28;20023;-75
2022/06/08 10:38:24;;;;;;;11.40;7.88;;;666.10;2432.00;;;;;;5097645;28;20032;-76
2022/06/08 10:40:53;;;;;;;9.77;6.68;;;666.00;2432.00;;;;;;5116151;28;20019;-77
2022/06/08 10:43:24;;;;;;;12.50;6.60;;;665.90;2432.00;;;;;;5116255;28;20032;-78
2022/06/08 10:45:57;;;;;;;11.55;7.45;;;665.90;2432.00;;;;;;5116181;28;20114;-77
2022/06/08 10:48:34;;;;;;;13.70;7.32;;;666.00;2432.00;;;;;;5098017;28;20035;-78
2022/06/08 10:51:14;;;;;;;9.02;6.82;;;666.00;2432.00;;;;;;5097896;28;20074;-79
2022/06/08 10:56:32;;;;;;;19.65;10.98;;;666.10;2432.00;;;;;;5116329;28;20038;-76
2022/06/08 10:59:12;;;;;;;16.25;10.52;;;666.40;2432.00;;;;;;5097297;28;20031;-81
2022/06/08 11:01:50;;;;;;;13.15;8.52;;;691.40;2432.00;;;;;;5098062;28;20088;-78
2022/06/08 11:04:57;;;;;;;11.70;7.50;;;692.10;2432.00;;;;;;5115853;28;20028;-81
2022/06/08 11:07:23;;;;;;;12.68;6.43;;;717.20;2432.00;;;;;;5096608;28;20036;-79
2022/06/08 11:10:01;;;;;;;9.50;6.50;;;717.50;2432.00;;;;;;5097783;28;20019;-81
2022/06/08 11:12:54;;;;;;;8.05;5.90;;;717.50;2406.40;;;;;;5096559;28;20027;-80
2022/06/08 11:15:52;;;;;;;14.43;6.70;;;717.20;2406.40;;;;;;5093673;28;20088;-82
2022/06/08 11:18:36;;;;;;;9.23;6.82;;;716.80;2432.00;;;;;;5080567;28;20035;-80
2022/06/08 11:21:14;;;;;;;11.88;6.55;;;691.80;2432.00;;;;;;5097545;28;20026;-80
2022/06/08 11:24:10;;;;;;;11.80;7.50;;;691.60;2432.00;;;;;;5116446;28;20112;-80
2022/06/08 11:26:39;;;;;;;15.10;9.77;;;691.60;2432.00;;;;;;5097417;28;20058;-80
2022/06/08 11:29:16;;;;;;;17.27;11.05;;;691.60;2432.00;;;;;;5097636;28;20110;-83
2022/06/08 11:31:42;;;;;;;12.98;9.23;;;691.50;2432.00;;;;;;5097603;28;20024;-81
2022/06/08 11:34:17;;;;;;;12.20;9.38;;;691.50;2432.00;;;;;;5097327;28;20023;-81
2022/06/08 11:37:13;;;;;;;13.63;9.60;;;691.40;2432.00;;;;;;5115925;28;20035;-80
2022/06/08 11:40:17;;;;;;;17.88;10.13;;;691.40;2432.00;;;;;;5097135;28;20034;-80
2022/06/08 11:42:50;;;;;;;18.45;11.25;;;691.30;2432.00;;;;;;5097214;28;20107;-81
2022/06/08 11:45:34;;;;;;;14.43;8.68;;;691.20;2432.00;;;;;;5097085;28;20077;-82
2022/06/08 11:48:20;;;;;;;13.40;9.15;;;691.20;2432.00;;;;;;5115070;28;20027;-79
2022/06/08 11:50:55;;;;;;;12.32;7.70;;;666.50;2432.00;;;;;;5114890;28;20436;-80
2022/06/08 11:53:33;;;;;;;19.02;11.50;;;666.50;2432.00;;;;;;5096889;28;20027;-81
2022/06/08 11:56:02;;;;;;;21.90;12.13;;;666.50;2432.00;;;;;;5097257;28;20038;-82
2022/06/08 11:58:31;;;;;;;24.35;16.23;;;666.30;2432.00;;;;;;5097177;28;20457;-79
2022/06/08 12:01:01;;;;;;;13.13;10.60;;;666.10;2432.00;;;;;;5096636;28;20032;-80
2022/06/08 12:03:42;;;;;;;37.72;12.15;;;666.00;2432.00;;;;;;5096996;28;20034;-81
2022/06/08 12:06:18;;;;;;;36.85;12.18;;;665.90;2432.00;;;;;;5096994;28;20031;-80
2022/06/08 12:08:50;;;;;;;32.55;12.48;;;665.90;2432.00;;;;;;5115069;28;20062;-81
2022/06/08 12:11:19;;;;;;;26.88;11.38;;;665.80;2432.00;;;;;;5125275;27;20419;-81
2022/06/08 12:14:23;;;;;;;16.42;8.77;;;665.70;2432.00;;;;;;5112666;27;20046;-80
2022/06/08 12:16:55;;;;;;;18.35;9.07;;;640.90;2432.00;;;;;;5101176;28;20028;-78
2022/06/08 12:19:23;;;;;;;16.33;9.30;;;640.70;2432.00;;;;;;5096478;28;20077;-85
2022/06/08 12:22:14;;;;;;;14.43;9.50;;;640.30;2432.00;;;;;;5096748;28;20122;-84
2022/06/08 12:24:40;;;;;;;12.95;5.68;;;615.10;2432.00;;;;;;5096566;28;20372;-79
2022/06/08 12:27:43;;;;;;;15.18;7.55;;;589.10;2432.00;;;;;;5096335;28;20035;-79
2022/06/08 12:30:47;;;;;;;9.43;5.50;;;563.90;2432.00;;;;;;5095892;28;20024;-78
2022/06/08 12:33:19;;;;;;;11.48;5.25;;;538.50;2406.40;;;;;;5080970;28;20034;-80
2022/06/08 12:36:07;;;;;;;9.23;5.32;;;538.10;2406.40;;;;;;5114010;28;20530;-80
2022/06/08 12:38:35;;;;;;;8.88;4.93;;;537.90;2406.40;;;;;;5096222;28;20065;-79
2022/06/08 12:41:12;;;;;;;13.23;5.45;;;537.70;2406.40;;;;;;5114706;28;20029;-78
2022/06/08 12:43:48;;;;;;;8.10;4.60;;;512.90;2380.80;;;;;;5095957;28;20027;-83
2022/06/08 12:46:17;;;;;;;8.23;5.65;;;512.70;2380.80;;;;;;5096307;28;20122;-76
2022/06/08 12:49:00;;;;;;;7.43;5.18;;;512.50;2380.80;;;;;;5095811;28;20066;-79
2022/06/08 12:51:29;;;;;;;7.30;5.35;;;512.50;2380.80;;;;;;5096388;28;20024;-81
2022/06/08 12:53:59;;;;;;;10.77;5.13;;;512.50;2380.80;;;;;;5095613;28;20146;-83
2022/06/08 12:56:26;;;;;;;10.30;5.70;;;512.60;2380.80;;;;;;5114027;28;20019;-81
2022/06/08 12:58:53;;;;;;;15.15;6.35;;;512.70;2380.80;;;;;;5096025;28;20380;-81